sensor_id;sensor_type;location;lat;lon;timestamp;P1;durP1;ratioP1;P2;durP2;ratioP2
17854;SDS011;9053;53.358;6.382;2023-09-08T00:01:28;8.10;;;7.25;;
17854;SDS011;9053;53.358;6.382;2023-09-08T00:03:58;9.27;;;7.65;;
17854;SDS011;9053;53.358;6.382;2023-09-08T00:06:28;8.45;;;7.55;;
17854;SDS011;9053;53.358;6.382;2023-09-08T00:08:58;9.07;;;7.88;;
17854;SDS011;9053;53.358;6.382;2023-09-08T00:11:28;9.90;;;8.23;;
17854;SDS011;9053;53.358;6.382;2023-09-08T00:14:00;10.32;;;8.40;;
17854;SDS011;9053;53.358;6.382;2023-09-08T00:16:30;8.50;;;7.53;;
17854;SDS011;9053;53.358;6.382;2023-09-08T00:19:00;8.55;;;7.65;;
17854;SDS011;9053;53.358;6.382;2023-09-08T00:21:30;10.27;;;9.18;;
17854;SDS011;9053;53.358;6.382;2023-09-08T00:24:00;8.23;;;7.30;;
17854;SDS011;9053;53.358;6.382;2023-09-08T00:26:30;9.98;;;8.85;;
17854;SDS011;9053;53.358;6.382;2023-09-08T00:29:03;8.73;;;7.82;;
17854;SDS011;9053;53.358;6.382;2023-09-08T00:31:33;9.15;;;7.93;;
17854;SDS011;9053;53.358;6.382;2023-09-08T00:34:03;10.13;;;8.18;;
17854;SDS011;9053;53.358;6.382;2023-09-08T00:36:33;8.60;;;7.70;;
17854;SDS011;9053;53.358;6.382;2023-09-08T00:39:03;9.65;;;8.65;;
17854;SDS011;9053;53.358;6.382;2023-09-08T00:41:33;8.77;;;7.88;;
17854;SDS011;9053;53.358;6.382;2023-09-08T00:44:06;8.77;;;7.78;;
17854;SDS011;9053;53.358;6.382;2023-09-08T00:46:38;9.80;;;7.50;;
17854;SDS011;9053;53.358;6.382;2023-09-08T00:49:08;10.05;;;9.05;;
17854;SDS011;9053;53.358;6.382;2023-09-08T00:51:38;8.82;;;7.93;;
17854;SDS011;9053;53.358;6.382;2023-09-08T00:54:08;8.65;;;7.85;;
17854;SDS011;9053;53.358;6.382;2023-09-08T00:56:38;9.27;;;8.13;;
17854;SDS011;9053;53.358;6.382;2023-09-08T00:59:11;9.00;;;7.90;;
17854;SDS011;9053;53.358;6.382;2023-09-08T01:01:41;8.75;;;7.72;;
17854;SDS011;9053;53.358;6.382;2023-09-08T01:04:10;8.60;;;7.70;;
17854;SDS011;9053;53.358;6.382;2023-09-08T01:06:40;10.52;;;9.40;;
17854;SDS011;9053;53.358;6.382;2023-09-08T01:09:11;10.40;;;9.35;;
17854;SDS011;9053;53.358;6.382;2023-09-08T01:11:42;9.23;;;8.32;;
17854;SDS011;9053;53.358;6.382;2023-09-08T01:14:14;8.82;;;7.93;;
17854;SDS011;9053;53.358;6.382;2023-09-08T01:16:47;9.32;;;8.43;;
17854;SDS011;9053;53.358;6.382;2023-09-08T01:19:17;8.80;;;7.90;;
17854;SDS011;9053;53.358;6.382;2023-09-08T01:21:53;8.07;;;7.20;;
17854;SDS011;9053;53.358;6.382;2023-09-08T01:24:41;9.27;;;8.32;;
17854;SDS011;9053;53.358;6.382;2023-09-08T01:27:33;8.65;;;7.75;;
17854;SDS011;9053;53.358;6.382;2023-09-08T01:30:05;10.63;;;9.57;;
17854;SDS011;9053;53.358;6.382;2023-09-08T01:32:36;9.77;;;8.35;;
17854;SDS011;9053;53.358;6.382;2023-09-08T01:35:07;12.95;;;9.70;;
17854;SDS011;9053;53.358;6.382;2023-09-08T01:37:39;9.52;;;8.52;;
17854;SDS011;9053;53.358;6.382;2023-09-08T01:40:12;9.00;;;8.10;;
17854;SDS011;9053;53.358;6.382;2023-09-08T01:42:43;11.32;;;10.10;;
17854;SDS011;9053;53.358;6.382;2023-09-08T01:45:13;8.90;;;8.00;;
17854;SDS011;9053;53.358;6.382;2023-09-08T01:47:43;10.18;;;9.13;;
17854;SDS011;9053;53.358;6.382;2023-09-08T01:50:13;11.55;;;9.93;;
17854;SDS011;9053;53.358;6.382;2023-09-08T01:52:48;9.20;;;8.25;;
17854;SDS011;9053;53.358;6.382;2023-09-08T01:55:20;12.48;;;9.60;;
17854;SDS011;9053;53.358;6.382;2023-09-08T01:57:50;10.75;;;8.80;;
17854;SDS011;9053;53.358;6.382;2023-09-08T02:00:21;9.63;;;8.63;;
17854;SDS011;9053;53.358;6.382;2023-09-08T02:02:51;9.30;;;8.30;;
17854;SDS011;9053;53.358;6.382;2023-09-08T02:05:21;9.80;;;8.80;;
17854;SDS011;9053;53.358;6.382;2023-09-08T02:07:52;9.55;;;8.55;;
17854;SDS011;9053;53.358;6.382;2023-09-08T02:10:24;9.95;;;8.93;;
17854;SDS011;9053;53.358;6.382;2023-09-08T02:12:54;10.77;;;9.60;;
17854;SDS011;9053;53.358;6.382;2023-09-08T02:15:24;10.95;;;9.85;;
17854;SDS011;9053;53.358;6.382;2023-09-08T02:17:56;9.68;;;8.68;;
17854;SDS011;9053;53.358;6.382;2023-09-08T02:20:26;10.60;;;9.43;;
17854;SDS011;9053;53.358;6.382;2023-09-08T02:22:56;10.02;;;8.98;;
17854;SDS011;9053;53.358;6.382;2023-09-08T02:25:28;10.98;;;9.63;;
17854;SDS011;9053;53.358;6.382;2023-09-08T02:27:58;12.30;;;10.25;;
17854;SDS011;9053;53.358;6.382;2023-09-08T02:30:28;10.82;;;9.65;;
17854;SDS011;9053;53.358;6.382;2023-09-08T02:32:59;9.52;;;8.52;;
17854;SDS011;9053;53.358;6.382;2023-09-08T02:35:29;10.50;;;8.95;;
17854;SDS011;9053;53.358;6.382;2023-09-08T02:37:59;10.05;;;9.05;;
17854;SDS011;9053;53.358;6.382;2023-09-08T02:40:32;11.25;;;10.00;;
17854;SDS011;9053;53.358;6.382;2023-09-08T02:43:03;11.35;;;9.95;;
17854;SDS011;9053;53.358;6.382;2023-09-08T02:45:33;11.18;;;9.02;;
17854;SDS011;9053;53.358;6.382;2023-09-08T02:48:04;10.68;;;9.52;;
17854;SDS011;9053;53.358;6.382;2023-09-08T02:50:34;11.60;;;9.77;;
17854;SDS011;9053;53.358;6.382;2023-09-08T02:53:04;11.13;;;9.90;;
17854;SDS011;9053;53.358;6.382;2023-09-08T02:55:36;11.55;;;9.85;;
17854;SDS011;9053;53.358;6.382;2023-09-08T02:58:06;10.88;;;9.75;;
17854;SDS011;9053;53.358;6.382;2023-09-08T03:00:36;11.35;;;9.85;;
17854;SDS011;9053;53.358;6.382;2023-09-08T03:03:06;12.10;;;10.85;;
17854;SDS011;9053;53.358;6.382;2023-09-08T03:05:36;10.10;;;8.95;;
17854;SDS011;9053;53.358;6.382;2023-09-08T03:08:06;11.77;;;10.00;;
17854;SDS011;9053;53.358;6.382;2023-09-08T03:10:39;12.70;;;11.15;;
17854;SDS011;9053;53.358;6.382;2023-09-08T03:13:09;10.32;;;9.32;;
17854;SDS011;9053;53.358;6.382;2023-09-08T03:15:39;10.68;;;9.57;;
17854;SDS011;9053;53.358;6.382;2023-09-08T03:18:09;10.10;;;9.00;;
17854;SDS011;9053;53.358;6.382;2023-09-08T03:20:42;9.98;;;8.90;;
17854;SDS011;9053;53.358;6.382;2023-09-08T03:23:12;11.20;;;9.43;;
17854;SDS011;9053;53.358;6.382;2023-09-08T03:25:44;9.55;;;8.55;;
17854;SDS011;9053;53.358;6.382;2023-09-08T03:28:14;10.77;;;9.30;;
17854;SDS011;9053;53.358;6.382;2023-09-08T03:30:44;10.60;;;9.40;;
17854;SDS011;9053;53.358;6.382;2023-09-08T03:33:15;11.40;;;9.90;;
17854;SDS011;9053;53.358;6.382;2023-09-08T03:35:45;12.00;;;10.05;;
17854;SDS011;9053;53.358;6.382;2023-09-08T03:38:15;11.77;;;9.77;;
17854;SDS011;9053;53.358;6.382;2023-09-08T03:40:47;11.45;;;10.30;;
17854;SDS011;9053;53.358;6.382;2023-09-08T03:43:17;10.63;;;9.52;;
17854;SDS011;9053;53.358;6.382;2023-09-08T03:45:50;13.90;;;11.10;;
17854;SDS011;9053;53.358;6.382;2023-09-08T03:48:23;12.18;;;10.65;;
17854;SDS011;9053;53.358;6.382;2023-09-08T03:50:53;11.05;;;9.20;;
17854;SDS011;9053;53.358;6.382;2023-09-08T03:53:23;14.02;;;11.02;;
17854;SDS011;9053;53.358;6.382;2023-09-08T03:55:55;12.07;;;10.25;;
17854;SDS011;9053;53.358;6.382;2023-09-08T03:58:25;11.77;;;9.90;;
17854;SDS011;9053;53.358;6.382;2023-09-08T04:00:56;11.55;;;9.63;;
17854;SDS011;9053;53.358;6.382;2023-09-08T04:03:26;12.00;;;10.30;;
17854;SDS011;9053;53.358;6.382;2023-09-08T04:05:56;11.10;;;9.82;;
17854;SDS011;9053;53.358;6.382;2023-09-08T04:08:26;12.13;;;9.70;;
17854;SDS011;9053;53.358;6.382;2023-09-08T04:10:59;11.25;;;10.05;;
17854;SDS011;9053;53.358;6.382;2023-09-08T04:13:28;12.63;;;11.15;;
17854;SDS011;9053;53.358;6.382;2023-09-08T04:15:59;11.02;;;9.82;;
17854;SDS011;9053;53.358;6.382;2023-09-08T04:18:29;11.60;;;10.30;;
17854;SDS011;9053;53.358;6.382;2023-09-08T04:20:59;10.75;;;9.65;;
17854;SDS011;9053;53.358;6.382;2023-09-08T04:23:30;12.25;;;9.98;;
17854;SDS011;9053;53.358;6.382;2023-09-08T04:26:03;12.43;;;10.55;;
17854;SDS011;9053;53.358;6.382;2023-09-08T04:28:33;12.95;;;10.35;;
17854;SDS011;9053;53.358;6.382;2023-09-08T04:31:03;15.20;;;11.63;;
17854;SDS011;9053;53.358;6.382;2023-09-08T04:33:33;12.55;;;11.25;;
17854;SDS011;9053;53.358;6.382;2023-09-08T04:36:04;11.40;;;10.20;;
17854;SDS011;9053;53.358;6.382;2023-09-08T04:38:34;11.23;;;9.82;;
17854;SDS011;9053;53.358;6.382;2023-09-08T04:41:06;10.27;;;9.18;;
17854;SDS011;9053;53.358;6.382;2023-09-08T04:43:36;11.18;;;10.07;;
17854;SDS011;9053;53.358;6.382;2023-09-08T04:46:06;10.63;;;9.52;;
17854;SDS011;9053;53.358;6.382;2023-09-08T04:48:36;12.93;;;10.57;;
17854;SDS011;9053;53.358;6.382;2023-09-08T04:51:06;12.50;;;10.70;;
17854;SDS011;9053;53.358;6.382;2023-09-08T04:53:36;11.68;;;10.00;;
17854;SDS011;9053;53.358;6.382;2023-09-08T04:56:09;10.77;;;9.68;;
17854;SDS011;9053;53.358;6.382;2023-09-08T04:58:40;13.02;;;11.38;;
17854;SDS011;9053;53.358;6.382;2023-09-08T05:01:10;11.52;;;10.40;;
17854;SDS011;9053;53.358;6.382;2023-09-08T05:03:40;13.50;;;11.40;;
17854;SDS011;9053;53.358;6.382;2023-09-08T05:06:10;11.35;;;10.15;;
17854;SDS011;9053;53.358;6.382;2023-09-08T05:08:40;12.23;;;10.75;;
17854;SDS011;9053;53.358;6.382;2023-09-08T05:11:13;11.93;;;10.70;;
17854;SDS011;9053;53.358;6.382;2023-09-08T05:13:46;13.57;;;11.63;;
17854;SDS011;9053;53.358;6.382;2023-09-08T05:16:16;12.02;;;10.70;;
17854;SDS011;9053;53.358;6.382;2023-09-08T05:18:52;11.55;;;10.35;;
17854;SDS011;9053;53.358;6.382;2023-09-08T05:21:22;13.57;;;10.55;;
17854;SDS011;9053;53.358;6.382;2023-09-08T05:23:58;12.70;;;10.80;;
17854;SDS011;9053;53.358;6.382;2023-09-08T05:26:30;15.43;;;11.38;;
17854;SDS011;9053;53.358;6.382;2023-09-08T05:29:03;15.57;;;12.40;;
17854;SDS011;9053;53.358;6.382;2023-09-08T05:31:38;13.80;;;11.63;;
17854;SDS011;9053;53.358;6.382;2023-09-08T05:34:09;11.40;;;9.93;;
17854;SDS011;9053;53.358;6.382;2023-09-08T05:36:39;11.75;;;10.30;;
17854;SDS011;9053;53.358;6.382;2023-09-08T05:39:09;12.13;;;10.93;;
17854;SDS011;9053;53.358;6.382;2023-09-08T05:41:43;11.85;;;10.57;;
17854;SDS011;9053;53.358;6.382;2023-09-08T05:44:13;11.85;;;10.65;;
17854;SDS011;9053;53.358;6.382;2023-09-08T05:46:47;12.30;;;10.50;;
17854;SDS011;9053;53.358;6.382;2023-09-08T05:49:17;12.50;;;11.23;;
17854;SDS011;9053;53.358;6.382;2023-09-08T05:51:47;12.73;;;11.40;;
17854;SDS011;9053;53.358;6.382;2023-09-08T05:54:17;12.48;;;11.25;;
17854;SDS011;9053;53.358;6.382;2023-09-08T05:56:50;12.57;;;10.20;;
17854;SDS011;9053;53.358;6.382;2023-09-08T05:59:20;11.90;;;10.45;;
17854;SDS011;9053;53.358;6.382;2023-09-08T06:01:51;11.80;;;10.60;;
17854;SDS011;9053;53.358;6.382;2023-09-08T06:04:21;12.13;;;10.35;;
17854;SDS011;9053;53.358;6.382;2023-09-08T06:06:53;12.48;;;11.18;;
17854;SDS011;9053;53.358;6.382;2023-09-08T06:09:23;12.90;;;10.80;;
17854;SDS011;9053;53.358;6.382;2023-09-08T06:11:56;9.93;;;8.93;;
17854;SDS011;9053;53.358;6.382;2023-09-08T06:14:26;14.00;;;10.25;;
17854;SDS011;9053;53.358;6.382;2023-09-08T06:16:56;10.98;;;9.70;;
17854;SDS011;9053;53.358;6.382;2023-09-08T06:19:26;12.52;;;11.23;;
17854;SDS011;9053;53.358;6.382;2023-09-08T06:21:56;9.68;;;8.32;;
17854;SDS011;9053;53.358;6.382;2023-09-08T06:24:27;12.25;;;9.70;;
17854;SDS011;9053;53.358;6.382;2023-09-08T06:27:00;13.38;;;10.20;;
17854;SDS011;9053;53.358;6.382;2023-09-08T06:29:30;11.63;;;10.30;;
17854;SDS011;9053;53.358;6.382;2023-09-08T06:32:00;11.52;;;9.23;;
17854;SDS011;9053;53.358;6.382;2023-09-08T06:34:30;11.57;;;10.38;;
17854;SDS011;9053;53.358;6.382;2023-09-08T06:37:02;10.15;;;9.15;;
17854;SDS011;9053;53.358;6.382;2023-09-08T06:39:35;13.57;;;9.95;;
17854;SDS011;9053;53.358;6.382;2023-09-08T06:42:10;12.60;;;9.60;;
17854;SDS011;9053;53.358;6.382;2023-09-08T06:44:40;10.43;;;9.10;;
17854;SDS011;9053;53.358;6.382;2023-09-08T06:47:10;10.98;;;9.13;;
17854;SDS011;9053;53.358;6.382;2023-09-08T06:49:40;14.18;;;10.77;;
17854;SDS011;9053;53.358;6.382;2023-09-08T06:52:14;10.23;;;9.20;;
17854;SDS011;9053;53.358;6.382;2023-09-08T06:54:47;11.90;;;10.32;;
17854;SDS011;9053;53.358;6.382;2023-09-08T06:57:20;10.35;;;9.25;;
17854;SDS011;9053;53.358;6.382;2023-09-08T06:59:50;9.70;;;8.70;;
17854;SDS011;9053;53.358;6.382;2023-09-08T07:02:26;10.30;;;9.02;;
17854;SDS011;9053;53.358;6.382;2023-09-08T07:04:56;10.93;;;9.10;;
17854;SDS011;9053;53.358;6.382;2023-09-08T07:07:27;9.38;;;8.38;;
17854;SDS011;9053;53.358;6.382;2023-09-08T07:09:58;9.30;;;8.40;;
17854;SDS011;9053;53.358;6.382;2023-09-08T07:12:30;10.00;;;9.00;;
17854;SDS011;9053;53.358;6.382;2023-09-08T07:15:00;9.73;;;8.07;;
17854;SDS011;9053;53.358;6.382;2023-09-08T07:17:30;9.45;;;8.43;;
17854;SDS011;9053;53.358;6.382;2023-09-08T07:20:00;9.32;;;8.23;;
17854;SDS011;9053;53.358;6.382;2023-09-08T07:22:30;10.00;;;7.40;;
17854;SDS011;9053;53.358;6.382;2023-09-08T07:24:59;8.32;;;7.53;;
17854;SDS011;9053;53.358;6.382;2023-09-08T07:27:42;8.48;;;7.28;;
17854;SDS011;9053;53.358;6.382;2023-09-08T07:30:12;8.88;;;6.70;;
17854;SDS011;9053;53.358;6.382;2023-09-08T07:32:42;7.68;;;6.88;;
17854;SDS011;9053;53.358;6.382;2023-09-08T07:35:13;7.88;;;7.03;;
17854;SDS011;9053;53.358;6.382;2023-09-08T07:37:43;7.95;;;6.85;;
17854;SDS011;9053;53.358;6.382;2023-09-08T07:40:14;7.45;;;5.85;;
17854;SDS011;9053;53.358;6.382;2023-09-08T07:42:47;7.40;;;6.70;;
17854;SDS011;9053;53.358;6.382;2023-09-08T07:45:17;7.30;;;6.60;;
17854;SDS011;9053;53.358;6.382;2023-09-08T07:47:47;6.40;;;5.80;;
17854;SDS011;9053;53.358;6.382;2023-09-08T07:50:17;7.53;;;6.82;;
17854;SDS011;9053;53.358;6.382;2023-09-08T07:52:50;6.47;;;5.55;;
17854;SDS011;9053;53.358;6.382;2023-09-08T07:55:21;6.40;;;5.80;;
17854;SDS011;9053;53.358;6.382;2023-09-08T07:57:57;6.13;;;5.53;;
17854;SDS011;9053;53.358;6.382;2023-09-08T08:00:27;5.63;;;5.13;;
17854;SDS011;9053;53.358;6.382;2023-09-08T08:02:57;6.18;;;5.65;;
17854;SDS011;9053;53.358;6.382;2023-09-08T08:05:27;6.20;;;5.38;;
17854;SDS011;9053;53.358;6.382;2023-09-08T08:07:57;6.07;;;5.47;;
17854;SDS011;9053;53.358;6.382;2023-09-08T08:10:28;5.90;;;5.40;;
17854;SDS011;9053;53.358;6.382;2023-09-08T08:13:04;6.22;;;5.22;;
17854;SDS011;9053;53.358;6.382;2023-09-08T08:15:34;6.07;;;5.47;;
17854;SDS011;9053;53.358;6.382;2023-09-08T08:18:06;5.05;;;4.65;;
17854;SDS011;9053;53.358;6.382;2023-09-08T08:20:36;5.22;;;4.72;;
17854;SDS011;9053;53.358;6.382;2023-09-08T08:23:07;5.15;;;4.65;;
17854;SDS011;9053;53.358;6.382;2023-09-08T08:25:37;4.82;;;4.40;;
17854;SDS011;9053;53.358;6.382;2023-09-08T08:28:09;5.28;;;4.78;;
17854;SDS011;9053;53.358;6.382;2023-09-08T08:30:39;5.32;;;4.82;;
17854;SDS011;9053;53.358;6.382;2023-09-08T08:33:12;5.10;;;4.60;;
17854;SDS011;9053;53.358;6.382;2023-09-08T08:35:47;4.82;;;4.43;;
17854;SDS011;9053;53.358;6.382;2023-09-08T08:38:18;4.97;;;4.57;;
17854;SDS011;9053;53.358;6.382;2023-09-08T08:40:48;4.50;;;4.10;;
17854;SDS011;9053;53.358;6.382;2023-09-08T08:43:21;4.93;;;4.47;;
17854;SDS011;9053;53.358;6.382;2023-09-08T08:45:54;4.90;;;4.50;;
17854;SDS011;9053;53.358;6.382;2023-09-08T08:48:27;4.40;;;4.05;;
17854;SDS011;9053;53.358;6.382;2023-09-08T08:50:59;5.38;;;4.88;;
17854;SDS011;9053;53.358;6.382;2023-09-08T08:53:31;5.65;;;4.63;;
17854;SDS011;9053;53.358;6.382;2023-09-08T08:56:01;5.38;;;4.55;;
17854;SDS011;9053;53.358;6.382;2023-09-08T08:58:38;5.10;;;4.60;;
17854;SDS011;9053;53.358;6.382;2023-09-08T09:01:09;4.88;;;4.22;;
17854;SDS011;9053;53.358;6.382;2023-09-08T09:03:41;4.82;;;4.43;;
17854;SDS011;9053;53.358;6.382;2023-09-08T09:06:15;4.55;;;4.10;;
17854;SDS011;9053;53.358;6.382;2023-09-08T09:08:45;5.22;;;4.40;;
17854;SDS011;9053;53.358;6.382;2023-09-08T09:11:15;4.45;;;4.05;;
17854;SDS011;9053;53.358;6.382;2023-09-08T09:13:48;6.05;;;4.25;;
17854;SDS011;9053;53.358;6.382;2023-09-08T09:16:18;4.40;;;4.00;;
17854;SDS011;9053;53.358;6.382;2023-09-08T09:18:55;4.72;;;4.20;;
17854;SDS011;9053;53.358;6.382;2023-09-08T09:21:40;4.38;;;3.97;;
17854;SDS011;9053;53.358;6.382;2023-09-08T09:24:16;4.95;;;4.47;;
17854;SDS011;9053;53.358;6.382;2023-09-08T09:26:46;6.05;;;5.45;;
17854;SDS011;9053;53.358;6.382;2023-09-08T09:29:24;4.68;;;4.28;;
17854;SDS011;9053;53.358;6.382;2023-09-08T09:31:55;6.03;;;5.00;;
17854;SDS011;9053;53.358;6.382;2023-09-08T09:34:26;5.60;;;5.10;;
17854;SDS011;9053;53.358;6.382;2023-09-08T09:36:56;5.35;;;4.85;;
17854;SDS011;9053;53.358;6.382;2023-09-08T09:39:26;4.75;;;4.35;;
17854;SDS011;9053;53.358;6.382;2023-09-08T09:41:57;5.32;;;4.82;;
17854;SDS011;9053;53.358;6.382;2023-09-08T09:44:29;5.07;;;4.68;;
17854;SDS011;9053;53.358;6.382;2023-09-08T09:47:00;5.28;;;4.78;;
17854;SDS011;9053;53.358;6.382;2023-09-08T09:49:30;4.97;;;4.50;;
17854;SDS011;9053;53.358;6.382;2023-09-08T09:52:01;5.32;;;4.82;;
17854;SDS011;9053;53.358;6.382;2023-09-08T09:54:31;4.13;;;3.72;;
17854;SDS011;9053;53.358;6.382;2023-09-08T09:57:01;5.28;;;4.78;;
17854;SDS011;9053;53.358;6.382;2023-09-08T09:59:35;5.00;;;4.50;;
17854;SDS011;9053;53.358;6.382;2023-09-08T10:02:05;4.60;;;4.20;;
17854;SDS011;9053;53.358;6.382;2023-09-08T10:04:41;3.97;;;3.67;;
17854;SDS011;9053;53.358;6.382;2023-09-08T10:07:11;4.60;;;4.20;;
17854;SDS011;9053;53.358;6.382;2023-09-08T10:09:41;5.47;;;4.97;;
17854;SDS011;9053;53.358;6.382;2023-09-08T10:12:13;7.50;;;5.88;;
17854;SDS011;9053;53.358;6.382;2023-09-08T10:14:48;5.68;;;5.07;;
17854;SDS011;9053;53.358;6.382;2023-09-08T10:17:23;5.43;;;4.93;;
17854;SDS011;9053;53.358;6.382;2023-09-08T10:20:00;4.65;;;4.25;;
17854;SDS011;9053;53.358;6.382;2023-09-08T10:22:35;5.35;;;4.80;;
17854;SDS011;9053;53.358;6.382;2023-09-08T10:25:08;4.70;;;4.30;;
17854;SDS011;9053;53.358;6.382;2023-09-08T10:27:39;5.00;;;4.50;;
17854;SDS011;9053;53.358;6.382;2023-09-08T10:30:13;5.35;;;4.68;;
17854;SDS011;9053;53.358;6.382;2023-09-08T10:32:47;5.00;;;4.30;;
17854;SDS011;9053;53.358;6.382;2023-09-08T10:35:19;4.18;;;3.78;;
17854;SDS011;9053;53.358;6.382;2023-09-08T10:37:49;5.53;;;4.35;;
17854;SDS011;9053;53.358;6.382;2023-09-08T10:40:20;4.47;;;4.07;;
17854;SDS011;9053;53.358;6.382;2023-09-08T10:43:05;4.25;;;3.88;;
17854;SDS011;9053;53.358;6.382;2023-09-08T10:45:39;5.35;;;4.10;;
17854;SDS011;9053;53.358;6.382;2023-09-08T10:48:09;4.28;;;3.83;;
17854;SDS011;9053;53.358;6.382;2023-09-08T10:50:41;4.20;;;3.80;;
17854;SDS011;9053;53.358;6.382;2023-09-08T10:53:15;4.18;;;3.88;;
17854;SDS011;9053;53.358;6.382;2023-09-08T10:55:46;4.97;;;3.75;;
17854;SDS011;9053;53.358;6.382;2023-09-08T10:58:38;4.28;;;3.88;;
17854;SDS011;9053;53.358;6.382;2023-09-08T11:01:15;4.20;;;3.80;;
17854;SDS011;9053;53.358;6.382;2023-09-08T11:03:49;4.75;;;4.35;;
17854;SDS011;9053;53.358;6.382;2023-09-08T11:06:21;5.13;;;4.63;;
17854;SDS011;9053;53.358;6.382;2023-09-08T11:08:57;5.15;;;3.95;;
17854;SDS011;9053;53.358;6.382;2023-09-08T11:11:36;5.78;;;4.40;;
17854;SDS011;9053;53.358;6.382;2023-09-08T11:14:06;5.13;;;4.22;;
17854;SDS011;9053;53.358;6.382;2023-09-08T11:16:38;4.47;;;4.07;;
17854;SDS011;9053;53.358;6.382;2023-09-08T11:19:08;4.70;;;4.30;;
17854;SDS011;9053;53.358;6.382;2023-09-08T11:21:39;4.63;;;4.22;;
17854;SDS011;9053;53.358;6.382;2023-09-08T11:24:09;4.57;;;4.18;;
17854;SDS011;9053;53.358;6.382;2023-09-08T11:26:41;5.00;;;3.67;;
17854;SDS011;9053;53.358;6.382;2023-09-08T11:29:13;4.78;;;4.38;;
17854;SDS011;9053;53.358;6.382;2023-09-08T11:31:46;4.25;;;3.85;;
17854;SDS011;9053;53.358;6.382;2023-09-08T11:34:21;4.28;;;3.88;;
17854;SDS011;9053;53.358;6.382;2023-09-08T11:36:51;3.80;;;3.50;;
17854;SDS011;9053;53.358;6.382;2023-09-08T11:39:22;4.82;;;4.43;;
17854;SDS011;9053;53.358;6.382;2023-09-08T11:41:53;4.18;;;3.47;;
17854;SDS011;9053;53.358;6.382;2023-09-08T11:44:23;4.90;;;4.40;;
17854;SDS011;9053;53.358;6.382;2023-09-08T11:47:01;4.40;;;4.00;;
17854;SDS011;9053;53.358;6.382;2023-09-08T11:49:33;4.53;;;4.13;;
17854;SDS011;9053;53.358;6.382;2023-09-08T11:52:06;4.43;;;4.03;;
17854;SDS011;9053;53.358;6.382;2023-09-08T11:54:42;4.53;;;4.22;;
17854;SDS011;9053;53.358;6.382;2023-09-08T11:57:31;3.83;;;3.50;;
17854;SDS011;9053;53.358;6.382;2023-09-08T12:00:02;4.28;;;3.88;;
17854;SDS011;9053;53.358;6.382;2023-09-08T12:02:36;4.15;;;3.75;;
17854;SDS011;9053;53.358;6.382;2023-09-08T12:05:10;4.28;;;3.88;;
17854;SDS011;9053;53.358;6.382;2023-09-08T12:07:41;4.90;;;3.83;;
17854;SDS011;9053;53.358;6.382;2023-09-08T12:10:11;3.92;;;3.53;;
17854;SDS011;9053;53.358;6.382;2023-09-08T12:12:41;4.55;;;4.15;;
17854;SDS011;9053;53.358;6.382;2023-09-08T12:18:04;4.15;;;3.75;;
17854;SDS011;9053;53.358;6.382;2023-09-08T12:20:36;4.10;;;3.70;;
17854;SDS011;9053;53.358;6.382;2023-09-08T12:23:14;4.88;;;4.38;;
17854;SDS011;9053;53.358;6.382;2023-09-08T12:25:46;4.60;;;4.20;;
17854;SDS011;9053;53.358;6.382;2023-09-08T12:28:17;4.60;;;4.20;;
17854;SDS011;9053;53.358;6.382;2023-09-08T12:30:49;4.25;;;3.85;;
17854;SDS011;9053;53.358;6.382;2023-09-08T12:33:22;4.53;;;4.13;;
17854;SDS011;9053;53.358;6.382;2023-09-08T12:35:52;4.28;;;3.88;;
17854;SDS011;9053;53.358;6.382;2023-09-08T12:38:22;4.72;;;4.32;;
17854;SDS011;9053;53.358;6.382;2023-09-08T12:40:52;5.50;;;5.00;;
17854;SDS011;9053;53.358;6.382;2023-09-08T12:43:22;4.55;;;4.15;;
17854;SDS011;9053;53.358;6.382;2023-09-08T12:45:53;4.53;;;3.85;;
17854;SDS011;9053;53.358;6.382;2023-09-08T12:48:26;4.88;;;4.38;;
17854;SDS011;9053;53.358;6.382;2023-09-08T12:50:56;4.20;;;3.80;;
17854;SDS011;9053;53.358;6.382;2023-09-08T12:53:26;4.00;;;3.60;;
17854;SDS011;9053;53.358;6.382;2023-09-08T12:55:56;5.15;;;4.70;;
17854;SDS011;9053;53.358;6.382;2023-09-08T12:58:26;4.43;;;4.03;;
17854;SDS011;9053;53.358;6.382;2023-09-08T13:00:57;4.15;;;3.63;;
17854;SDS011;9053;53.358;6.382;2023-09-08T13:03:29;4.30;;;3.92;;
17854;SDS011;9053;53.358;6.382;2023-09-08T13:05:59;3.80;;;3.50;;
17854;SDS011;9053;53.358;6.382;2023-09-08T13:08:29;4.32;;;3.40;;
17854;SDS011;9053;53.358;6.382;2023-09-08T13:11:00;3.75;;;3.30;;
17854;SDS011;9053;53.358;6.382;2023-09-08T13:13:30;3.78;;;3.47;;
17854;SDS011;9053;53.358;6.382;2023-09-08T13:15:59;3.95;;;3.60;;
17854;SDS011;9053;53.358;6.382;2023-09-08T13:18:32;5.25;;;4.40;;
17854;SDS011;9053;53.358;6.382;2023-09-08T13:21:05;4.80;;;3.90;;
17854;SDS011;9053;53.358;6.382;2023-09-08T13:23:35;4.20;;;3.80;;
17854;SDS011;9053;53.358;6.382;2023-09-08T13:26:05;3.72;;;3.42;;
17854;SDS011;9053;53.358;6.382;2023-09-08T13:28:35;4.07;;;3.30;;
17854;SDS011;9053;53.358;6.382;2023-09-08T13:31:05;4.72;;;3.45;;
17854;SDS011;9053;53.358;6.382;2023-09-08T13:33:37;5.65;;;4.97;;
17854;SDS011;9053;53.358;6.382;2023-09-08T13:36:07;4.10;;;3.80;;
17854;SDS011;9053;53.358;6.382;2023-09-08T13:38:37;3.95;;;3.65;;
17854;SDS011;9053;53.358;6.382;2023-09-08T13:41:07;4.05;;;3.72;;
17854;SDS011;9053;53.358;6.382;2023-09-08T13:43:37;4.20;;;3.90;;
17854;SDS011;9053;53.358;6.382;2023-09-08T13:46:11;4.45;;;3.75;;
17854;SDS011;9053;53.358;6.382;2023-09-08T13:48:43;3.78;;;3.45;;
17854;SDS011;9053;53.358;6.382;2023-09-08T13:51:14;5.38;;;3.20;;
17854;SDS011;9053;53.358;6.382;2023-09-08T13:53:47;3.40;;;3.03;;
17854;SDS011;9053;53.358;6.382;2023-09-08T13:56:18;3.30;;;3.00;;
17854;SDS011;9053;53.358;6.382;2023-09-08T13:58:51;3.28;;;2.97;;
17854;SDS011;9053;53.358;6.382;2023-09-08T14:01:23;3.20;;;2.90;;
17854;SDS011;9053;53.358;6.382;2023-09-08T14:04:02;3.58;;;3.28;;
17854;SDS011;9053;53.358;6.382;2023-09-08T14:06:36;3.08;;;2.88;;
17854;SDS011;9053;53.358;6.382;2023-09-08T14:09:14;3.33;;;2.88;;
17854;SDS011;9053;53.358;6.382;2023-09-08T14:12:05;3.40;;;3.10;;
17854;SDS011;9053;53.358;6.382;2023-09-08T14:14:38;3.50;;;3.20;;
17854;SDS011;9053;53.358;6.382;2023-09-08T14:17:08;3.88;;;3.58;;
17854;SDS011;9053;53.358;6.382;2023-09-08T14:19:40;4.32;;;3.58;;
17854;SDS011;9053;53.358;6.382;2023-09-08T14:22:10;3.53;;;3.22;;
17854;SDS011;9053;53.358;6.382;2023-09-08T14:24:40;3.58;;;3.28;;
17854;SDS011;9053;53.358;6.382;2023-09-08T14:27:10;3.35;;;3.05;;
17854;SDS011;9053;53.358;6.382;2023-09-08T14:29:40;3.50;;;3.20;;
17854;SDS011;9053;53.358;6.382;2023-09-08T14:32:09;3.28;;;2.60;;
17854;SDS011;9053;53.358;6.382;2023-09-08T14:34:42;3.45;;;3.15;;
17854;SDS011;9053;53.358;6.382;2023-09-08T14:37:12;3.60;;;3.30;;
17854;SDS011;9053;53.358;6.382;2023-09-08T14:39:42;3.20;;;2.90;;
17854;SDS011;9053;53.358;6.382;2023-09-08T14:42:12;3.72;;;3.03;;
17854;SDS011;9053;53.358;6.382;2023-09-08T14:44:42;3.88;;;3.55;;
17854;SDS011;9053;53.358;6.382;2023-09-08T14:47:12;4.00;;;3.70;;
17854;SDS011;9053;53.358;6.382;2023-09-08T14:49:44;3.90;;;3.28;;
17854;SDS011;9053;53.358;6.382;2023-09-08T14:52:14;3.38;;;3.08;;
17854;SDS011;9053;53.358;6.382;2023-09-08T14:54:47;3.90;;;3.60;;
17854;SDS011;9053;53.358;6.382;2023-09-08T14:57:17;3.40;;;3.10;;
17854;SDS011;9053;53.358;6.382;2023-09-08T14:59:47;3.78;;;3.38;;
17854;SDS011;9053;53.358;6.382;2023-09-08T15:02:20;3.83;;;3.50;;
17854;SDS011;9053;53.358;6.382;2023-09-08T15:04:53;4.22;;;3.80;;
17854;SDS011;9053;53.358;6.382;2023-09-08T15:07:23;3.58;;;3.28;;
17854;SDS011;9053;53.358;6.382;2023-09-08T15:09:53;3.40;;;3.10;;
17854;SDS011;9053;53.358;6.382;2023-09-08T15:12:24;4.10;;;3.60;;
17854;SDS011;9053;53.358;6.382;2023-09-08T15:14:54;3.70;;;3.40;;
17854;SDS011;9053;53.358;6.382;2023-09-08T15:17:23;3.67;;;3.30;;
17854;SDS011;9053;53.358;6.382;2023-09-08T15:19:56;4.90;;;3.58;;
17854;SDS011;9053;53.358;6.382;2023-09-08T15:22:26;3.63;;;3.33;;
17854;SDS011;9053;53.358;6.382;2023-09-08T15:24:56;3.47;;;3.17;;